createdAt,value
2018-11-29T00:00:02.910Z,-3.3
2018-11-29T00:15:03.207Z,-3.4
2018-11-29T00:30:02.591Z,-3.4
2018-11-29T00:45:02.902Z,-3.4
2018-11-29T01:00:03.224Z,-3.7
2018-11-29T01:15:02.751Z,-4.1
2018-11-29T01:30:03.313Z,-3.8
2018-11-29T01:45:02.742Z,-3.8
2018-11-29T02:00:03.335Z,-3.6
2018-11-29T02:15:02.589Z,-3.6
2018-11-29T02:30:02.941Z,-3.8
2018-11-29T02:45:03.226Z,-3.8
2018-11-29T03:00:02.521Z,-3.9
2018-11-29T03:15:02.703Z,-3.9
2018-11-29T03:30:03.385Z,-3.9
2018-11-29T03:45:02.745Z,-3.9
2018-11-29T04:00:03.182Z,-3.9
2018-11-29T04:15:03.362Z,-3.9
2018-11-29T04:30:02.783Z,-4.1
2018-11-29T04:45:03.305Z,-4.1
2018-11-29T05:00:02.756Z,-4.2
2018-11-29T05:15:03.093Z,-4.1
2018-11-29T05:30:03.349Z,-4.1
2018-11-29T05:45:02.675Z,-4.2
2018-11-29T06:00:02.873Z,-4.2
2018-11-29T06:15:03.179Z,-4.2
2018-11-29T06:30:02.739Z,-4.2
2018-11-29T06:45:03.067Z,-4.2
2018-11-29T07:00:03.388Z,-4.2
2018-11-29T07:15:02.841Z,-4.1
2018-11-29T07:30:03.508Z,-4
2018-11-29T07:45:03.261Z,-3.9
2018-11-29T08:00:03.329Z,-3.6
2018-11-29T08:15:03.218Z,-3.4
2018-11-29T08:30:02.570Z,-3.2
2018-11-29T08:45:02.888Z,-3
2018-11-29T09:00:03.363Z,-2.6
2018-11-29T09:15:02.650Z,-2.4
2018-11-29T09:30:03.021Z,-2.1
2018-11-29T09:45:03.290Z,-1.9
2018-11-29T10:00:02.751Z,-1.8
2018-11-29T10:15:03.225Z,-1.4
2018-11-29T10:30:02.601Z,-1.2
2018-11-29T10:45:02.907Z,-1
2018-11-29T11:00:03.205Z,-0.6
2018-11-29T11:15:02.762Z,-0.5
2018-11-29T11:30:03.135Z,-0.5
2018-11-29T11:45:03.351Z,-0.3
2018-11-29T12:00:02.900Z,-0.1
2018-11-29T12:15:03.084Z,0.1
2018-11-29T12:30:02.815Z,0.1
2018-11-29T12:45:03.131Z,0.1
2018-11-29T13:00:03.333Z,0.2
2018-11-29T13:15:02.700Z,0.2
2018-11-29T13:30:03.290Z,0.1
2018-11-29T13:45:02.534Z,0.1
2018-11-29T14:00:02.885Z,-0.1
2018-11-29T14:15:03.186Z,-0.2
2018-11-29T14:30:02.581Z,-0.5
2018-11-29T14:45:02.890Z,-0.7
2018-11-29T15:00:03.220Z,-0.9
2018-11-29T15:15:02.481Z,-1
2018-11-29T15:30:03.138Z,-1.2
2018-11-29T15:45:03.319Z,-1.3
2018-11-29T16:00:02.683Z,-1.4
2018-11-29T16:15:02.870Z,-1.4
2018-11-29T16:30:02.575Z,-1.6
2018-11-29T16:45:02.814Z,-1.7
2018-11-29T17:00:03.344Z,-1.8
2018-11-29T17:15:02.578Z,-1.8
2018-11-29T17:30:03.516Z,-1.9
2018-11-29T17:45:02.495Z,-2
2018-11-29T18:00:03.063Z,-2.1
2018-11-29T18:15:03.374Z,-2.1
2018-11-29T18:30:02.879Z,-2.2
2018-11-29T18:45:03.138Z,-2.2
2018-11-29T19:00:03.446Z,-2.3
2018-11-29T19:15:02.736Z,-2.4
2018-11-29T19:30:04.357Z,-2.4
2018-11-29T19:45:03.374Z,-2.6
2018-11-29T20:00:02.722Z,-2.5
2018-11-29T20:15:03.100Z,-2.5
2018-11-29T20:30:03.364Z,-2.6
2018-11-29T20:45:03.207Z,-2.5
2018-11-29T21:00:03.132Z,-2.5
2018-11-29T21:15:02.560Z,-2.6
2018-11-29T21:30:03.007Z,-2.6
2018-11-29T21:45:03.177Z,-2.5
2018-11-29T22:00:02.497Z,-2.6
2018-11-29T22:15:03.038Z,-2.5
2018-11-29T22:30:03.466Z,-2.5
2018-11-29T22:45:02.827Z,-2.5
2018-11-29T23:00:03.163Z,-2.5
2018-11-29T23:15:03.349Z,-2.5
2018-11-29T23:30:02.695Z,-2.5
2018-11-29T23:45:03.206Z,-2.4
